Portada
METAR-TAF:

METAR-TAF

Aeropuertos :

Lawrenceville-Vincennes International Airport

Lawrenceville, Illinois, Estados Unidos

latitud: 38-45-38N, longitud: 087-35-56W, altitud: 131 m

Observación

El informe se hizo hace 30 minutos, a las 20:53 UTC
Viento 5 kt del sur-sureste
Temperatura 33°C
Humedad 44%
Presión 1023 hPa
Visibilidad: 16.1 km
Escasas nubes a una altura de 6000 ft

METAR: KLWV 192053Z AUTO 15005KT 10SM FEW060 33/19 A3020 RMK AO2 SLP222 T03280194 56012

Hora: 16:23 (21:23 UTC)


TAF: falta

Observaciones y pronósticos meteorológicos de más de 4000 aeropuertos (mensajes METAR y TAF).

Los puntos amarillos y rojos representan las estaciones disponibles.

Ponga el ratón en el punto deseado para ver el nombre de la estación.

Haga clic para ver las observaciones y los pronósticos meteorológicos.

Para cambiar el mapa : haga clic en los botones verdes con una cruz de color negro para hacer un zoom, en el botón verde con un guión para alejar o en las flechas verdes para mapas adyacentes.


METAR-TAF: